📊 Raw Sensor Data

Showing records 52226 to 52250 of 85,273 total

ID Distance (ft) Battery V Battery A Int Temp (°F) Int Humid (%) Ext Temp (°F) Solar V RSSI SNR Time Stamp
33060 14.1 3.78 -5 44 39 48 0.00 -76 8 02/21/2025 10:45 PM
33059 14.1 3.78 -5 45 39 47 0.10 -77 8 02/21/2025 10:30 PM
33058 14.1 3.78 -5 46 38 48 0.10 -77 8 02/21/2025 10:15 PM
33057 14.1 3.78 -5 46 39 49 0.10 -77 8 02/21/2025 10:00 PM
33056 14.1 3.83 -5 47 38 49 0.00 -75 8 02/21/2025 09:45 PM
33055 14.0 3.83 -5 47 38 51 0.10 -75 8 02/21/2025 09:30 PM
33054 14.1 3.83 -5 48 38 50 0.00 -75 8 02/21/2025 09:15 PM
33053 14.1 3.78 -5 48 38 51 0.10 -75 8 02/21/2025 09:00 PM
33052 14.1 3.79 -5 48 38 51 0.00 -76 8 02/21/2025 08:30 PM
33051 14.0 3.79 -5 48 39 50 0.00 -76 8 02/21/2025 08:15 PM
33050 14.1 3.79 -5 48 39 49 0.10 -76 8 02/21/2025 08:00 PM
33049 14.0 3.79 -5 48 40 53 0.00 -76 8 02/21/2025 07:45 PM
33048 14.0 3.79 -5 49 40 53 0.00 -76 8 02/21/2025 07:30 PM
33047 14.1 3.84 -5 50 41 52 0.00 -75 8 02/21/2025 07:15 PM
33046 14.0 3.79 -5 52 41 52 0.00 -76 8 02/21/2025 07:00 PM
33045 14.0 3.79 -5 52 42 54 0.00 -75 8 02/21/2025 06:45 PM
33044 14.0 3.79 -5 54 43 54 0.00 -75 8 02/21/2025 06:30 PM
33043 14.1 3.84 -5 56 43 56 0.10 -76 8 02/21/2025 06:15 PM
33042 14.0 3.79 -8 59 43 59 1.10 -75 7 02/21/2025 06:00 PM
33041 14.1 3.80 0 63 41 60 4.50 -75 8 02/21/2025 05:45 PM
33040 14.1 3.89 0 65 41 62 4.50 -75 7 02/21/2025 05:30 PM
33039 14.1 3.89 19 67 41 63 4.50 -74 7 02/21/2025 05:15 PM
33038 14.1 3.90 47 68 42 63 4.60 -74 8 02/21/2025 05:00 PM
33037 14.1 3.77 0 71 42 63 5.10 -74 8 02/21/2025 04:45 PM
33036 14.2 3.76 0 77 39 65 5.10 -74 8 02/21/2025 04:30 PM